createdAt,value
2023-02-08T00:01:28.567Z,99529.64
2023-02-08T00:03:56.660Z,99533.96
2023-02-08T00:06:24.797Z,99536.73
2023-02-08T00:08:52.800Z,99532.89
2023-02-08T00:11:21.169Z,99533.25
2023-02-08T00:13:49.654Z,99536.13
2023-02-08T00:16:18.848Z,99539.44
2023-02-08T00:18:46.986Z,99540.39
2023-02-08T00:21:17.493Z,99547.77
2023-02-08T00:23:46.691Z,99549.98
2023-02-08T00:26:15.029Z,99553.08
2023-02-08T00:28:43.811Z,99557.06
2023-02-08T00:31:11.926Z,99552.85
2023-02-08T00:33:39.967Z,99554.37
2023-02-08T00:36:09.017Z,99555.16
2023-02-08T00:38:37.146Z,99549.64
2023-02-08T00:41:05.304Z,99551.60
2023-02-08T00:43:33.751Z,99557.05
2023-02-08T00:46:02.199Z,99557.77
2023-02-08T00:48:31.765Z,99564.89
2023-02-08T00:51:09.452Z,99573.61
2023-02-08T00:53:39.478Z,99574.45
2023-02-08T00:56:09.105Z,99575.45
2023-02-08T00:58:37.520Z,99577.92
2023-02-08T01:01:06.692Z,99582.52
2023-02-08T01:03:37.230Z,99579.89
2023-02-08T01:06:08.156Z,99581.87
2023-02-08T01:08:36.523Z,99585.81
2023-02-08T01:11:14.394Z,99585.33
2023-02-08T01:13:42.438Z,99583.88
2023-02-08T01:16:19.702Z,99584.90
2023-02-08T01:18:50.851Z,99593.35
2023-02-08T01:21:24.874Z,99593.95
2023-02-08T01:23:53.785Z,99602.27
2023-02-08T01:26:23.360Z,99604.74
2023-02-08T01:28:52.824Z,99609.15
2023-02-08T01:31:24.409Z,99614.54
2023-02-08T01:33:53.225Z,99614.63
2023-02-08T01:36:22.088Z,99617.95
2023-02-08T01:38:50.540Z,99613.23
2023-02-08T01:41:20.562Z,99611.11
2023-02-08T01:44:13.725Z,99610.59
2023-02-08T01:46:44.453Z,99615.66
2023-02-08T01:49:18.296Z,99622.27
2023-02-08T01:51:59.478Z,99621.95
2023-02-08T01:54:32.865Z,99623.48
2023-02-08T01:57:02.694Z,99631.17
2023-02-08T01:59:40.822Z,99636.96
2023-02-08T02:02:12.840Z,99642.66
2023-02-08T02:04:41.690Z,99645.02
2023-02-08T02:07:10.517Z,99650.36
2023-02-08T02:09:53.578Z,99645.77
2023-02-08T02:12:22.321Z,99651.78
2023-02-08T02:14:51.855Z,99654.23
2023-02-08T02:17:20.832Z,99655.16
2023-02-08T02:19:57.989Z,99661.10
2023-02-08T02:22:32.248Z,99660.76
2023-02-08T02:25:26.433Z,99658.13
2023-02-08T02:28:25.363Z,99660.08
2023-02-08T02:31:13.048Z,99658.23
2023-02-08T02:34:22.780Z,99661.45
2023-02-08T02:37:00.115Z,99663.90
2023-02-08T02:39:53.727Z,99670.50
2023-02-08T02:43:07.416Z,99671.96
2023-02-08T02:45:45.601Z,99679.27
2023-02-08T02:48:22.653Z,99679.88
2023-02-08T02:51:00.620Z,99683.50
2023-02-08T02:53:36.748Z,99690.11
2023-02-08T02:56:18.888Z,99692.23
2023-02-08T02:58:49.685Z,99695.05
2023-02-08T03:01:26.397Z,99700.77
2023-02-08T03:03:54.983Z,99703.95
2023-02-08T03:06:40.851Z,99707.96
2023-02-08T03:09:16.522Z,99710.08
2023-02-08T03:11:58.071Z,99711.71
2023-02-08T03:14:50.190Z,99710.23
2023-02-08T03:18:12.493Z,99714.60
2023-02-08T03:20:47.119Z,99717.10
2023-02-08T03:23:42.449Z,99721.79
2023-02-08T03:26:36.749Z,99725.44
2023-02-08T03:29:15.384Z,99730.57
2023-02-08T03:31:47.685Z,99734.69
2023-02-08T03:34:25.814Z,99736.25
2023-02-08T03:36:56.180Z,99737.83
2023-02-08T03:39:33.186Z,99738.04
2023-02-08T03:42:08.224Z,99745.84
2023-02-08T03:44:44.976Z,99744.91
2023-02-08T03:47:35.435Z,99748.77
2023-02-08T03:50:09.659Z,99754.10
2023-02-08T03:52:39.142Z,99758.24
2023-02-08T03:55:14.114Z,99757.66
2023-02-08T03:57:50.045Z,99755.19
2023-02-08T04:00:19.170Z,99754.73
2023-02-08T04:02:56.075Z,99763.87
2023-02-08T04:05:25.214Z,99764.11
2023-02-08T04:07:53.371Z,99771.55
2023-02-08T04:10:21.824Z,99774.52
2023-02-08T04:12:51.093Z,99774.24
2023-02-08T04:15:19.176Z,99774.79
2023-02-08T04:17:48.017Z,99782.07
2023-02-08T04:20:16.191Z,99785.63
2023-02-08T04:22:44.665Z,99788.38
2023-02-08T04:25:12.734Z,99789.13
2023-02-08T04:27:41.476Z,99787.99
2023-02-08T04:30:10.484Z,99787.85
2023-02-08T04:32:38.491Z,99784.82
2023-02-08T04:35:07.193Z,99792.38
2023-02-08T04:37:35.194Z,99794.30
2023-02-08T04:40:03.855Z,99797.23
2023-02-08T04:42:32.161Z,99801.04
2023-02-08T04:45:02.671Z,99803.79
2023-02-08T04:47:30.649Z,99808.23
2023-02-08T04:49:58.719Z,99811.19
2023-02-08T04:52:26.715Z,99815.84
2023-02-08T04:54:54.686Z,99816.08
2023-02-08T04:57:22.771Z,99821.40
2023-02-08T04:59:50.994Z,99822.96
2023-02-08T05:02:18.949Z,99831.02
2023-02-08T05:04:47.081Z,99842.16
2023-02-08T05:07:15.116Z,99841.16
2023-02-08T05:09:44.734Z,99842.74
2023-02-08T05:12:13.157Z,99847.83
2023-02-08T05:14:41.104Z,99851.77
2023-02-08T05:17:09.371Z,99854.69
2023-02-08T05:19:38.225Z,99857.60
2023-02-08T05:22:06.347Z,99864.81
2023-02-08T05:24:35.180Z,99865.85
2023-02-08T05:27:03.174Z,99872.36
2023-02-08T05:29:31.376Z,99881.88
2023-02-08T05:31:59.472Z,99885.85
2023-02-08T05:34:27.741Z,99891.37
2023-02-08T05:36:57.771Z,99893.29
2023-02-08T05:39:25.795Z,99895.66
2023-02-08T05:41:54.044Z,99898.64
2023-02-08T05:44:22.282Z,99901.52
2023-02-08T05:46:50.408Z,99905.14
2023-02-08T05:49:18.484Z,99909.91
2023-02-08T05:51:46.533Z,99910.27
2023-02-08T05:54:14.750Z,99917.45
2023-02-08T05:56:44.688Z,99918.75
2023-02-08T05:59:12.685Z,99917.02
2023-02-08T06:01:40.966Z,99918.23
2023-02-08T06:04:09.014Z,99920.78
2023-02-08T06:06:37.061Z,99924.71
2023-02-08T06:09:07.650Z,99925.73
2023-02-08T06:11:36.244Z,99926.41
2023-02-08T06:14:05.407Z,99935.05
2023-02-08T06:16:35.677Z,99936.58
2023-02-08T06:19:04.731Z,99934.83
2023-02-08T06:21:33.815Z,99946.95
2023-02-08T06:24:03.925Z,99949.01
2023-02-08T06:26:32.457Z,99950.85
2023-02-08T06:29:01.069Z,99955.06
2023-02-08T06:31:29.286Z,99958.46
2023-02-08T06:33:57.933Z,99959.52
2023-02-08T06:36:26.365Z,99955.02
2023-02-08T06:38:54.635Z,99954.05
2023-02-08T06:41:22.873Z,99954.36
2023-02-08T06:43:51.022Z,99952.64
2023-02-08T06:46:19.449Z,99956.21
2023-02-08T06:48:47.491Z,99955.81
2023-02-08T06:51:15.573Z,99958.55
2023-02-08T06:53:43.857Z,99956.73
2023-02-08T06:56:11.972Z,99961.48
2023-02-08T06:58:40.151Z,99961.52
2023-02-08T07:01:12.675Z,99969.77
2023-02-08T07:03:41.892Z,99976.30
2023-02-08T07:06:18.423Z,99978.91
2023-02-08T07:08:47.855Z,99979.11
2023-02-08T07:11:18.090Z,99986.17
2023-02-08T07:13:48.790Z,99990.85
2023-02-08T07:16:20.057Z,99996.30
2023-02-08T07:18:50.400Z,99995.75
2023-02-08T07:21:18.576Z,99994.60
2023-02-08T07:23:47.113Z,99997.27
2023-02-08T07:26:15.730Z,100001.13
2023-02-08T07:28:44.249Z,100001.30
2023-02-08T07:31:15.663Z,100000.25
2023-02-08T07:33:46.009Z,100002.81
2023-02-08T07:36:14.570Z,100006.52
2023-02-08T07:38:46.118Z,100004.33
2023-02-08T07:41:17.384Z,100009.14
2023-02-08T07:43:47.456Z,100012.90
2023-02-08T07:46:21.952Z,100018.05
2023-02-08T07:48:52.863Z,100025.13
2023-02-08T07:51:24.418Z,100029.89
2023-02-08T07:53:52.910Z,100027.79
2023-02-08T07:56:21.235Z,100025.87
2023-02-08T07:58:49.338Z,100028.59
2023-02-08T08:01:22.323Z,100030.39
2023-02-08T08:03:55.427Z,100034.38
2023-02-08T08:06:26.808Z,100037.66
2023-02-08T08:08:55.041Z,100034.04
2023-02-08T08:11:23.733Z,100040.23
2023-02-08T08:13:53.899Z,100044.06
2023-02-08T08:16:22.562Z,100046.42
2023-02-08T08:18:50.928Z,100047.73
2023-02-08T08:21:19.252Z,100050.71
2023-02-08T08:23:47.511Z,100056.98
2023-02-08T08:26:19.126Z,100055.20
2023-02-08T08:28:48.311Z,100057.19
2023-02-08T08:31:21.281Z,100059.14
2023-02-08T08:33:51.293Z,100060.98
2023-02-08T08:36:19.553Z,100058.27
2023-02-08T08:38:50.198Z,100063.31
2023-02-08T08:41:18.869Z,100065.80
2023-02-08T08:43:47.120Z,100069.15
2023-02-08T08:46:16.934Z,100071.07
2023-02-08T08:48:46.297Z,100070.40
2023-02-08T08:51:16.262Z,100075.54
2023-02-08T08:53:44.349Z,100076.88
2023-02-08T08:56:13.165Z,100077.23
2023-02-08T08:58:43.492Z,100080.54
2023-02-08T09:01:13.746Z,100082.06
2023-02-08T09:03:42.150Z,100083.51
2023-02-08T09:06:10.832Z,100081.51
2023-02-08T09:08:39.564Z,100080.46
2023-02-08T09:11:17.523Z,100084.80
2023-02-08T09:13:47.821Z,100079.34
2023-02-08T09:16:17.922Z,100078.77
2023-02-08T09:18:47.047Z,100081.42
2023-02-08T09:21:21.613Z,100085.98
2023-02-08T09:23:50.059Z,100090.02
2023-02-08T09:26:21.758Z,100087.59
2023-02-08T09:28:49.918Z,100092.15
2023-02-08T09:31:27.493Z,100096.33
2023-02-08T09:33:59.820Z,100094.70
2023-02-08T09:36:33.171Z,100090.67
2023-02-08T09:39:10.738Z,100092.42
2023-02-08T09:42:03.809Z,100093.56
2023-02-08T09:44:53.686Z,100094.37
2023-02-08T09:47:35.112Z,100093.83
2023-02-08T09:50:13.928Z,100093.08
2023-02-08T09:52:53.548Z,100097.42
2023-02-08T09:55:28.035Z,100096.05
2023-02-08T09:58:00.277Z,100093.40
2023-02-08T10:00:38.862Z,100095.70
2023-02-08T10:03:24.130Z,100099.38
2023-02-08T10:05:53.703Z,100097.79
2023-02-08T10:08:28.879Z,100090.13
2023-02-08T10:11:05.932Z,100085.95
2023-02-08T10:13:54.220Z,100081.44
2023-02-08T10:16:44.458Z,100077.81
2023-02-08T10:19:47.314Z,100070.73
2023-02-08T10:22:48.504Z,100066.60
2023-02-08T10:25:41.733Z,100068.23
2023-02-08T10:28:40.563Z,100068.77
2023-02-08T10:31:37.665Z,100068.07
2023-02-08T10:34:47.109Z,100068.63
2023-02-08T10:37:21.764Z,100071.59
2023-02-08T10:39:53.160Z,100074.77
2023-02-08T10:42:24.596Z,100070.86
2023-02-08T10:45:24.722Z,100073.48
2023-02-08T10:48:13.383Z,100074.27
2023-02-08T10:50:48.114Z,100066.83
2023-02-08T10:53:35.637Z,100065.28
2023-02-08T10:56:05.197Z,100061.79
2023-02-08T10:58:33.660Z,100062.01
2023-02-08T11:01:10.365Z,100059.60
2023-02-08T11:04:06.670Z,100061.29
2023-02-08T11:06:36.886Z,100060.99
2023-02-08T11:09:06.616Z,100064.09
2023-02-08T11:11:38.222Z,100067.08
2023-02-08T11:17:28.620Z,100070.26
2023-02-08T11:19:59.222Z,100075.89
2023-02-08T11:22:35.106Z,100072.51
2023-02-08T11:25:08.233Z,100074.44
2023-02-08T11:27:45.644Z,100072.45
2023-02-08T11:30:17.281Z,100068.62
2023-02-08T11:32:49.666Z,100065.16
2023-02-08T11:35:22.056Z,100061.08
2023-02-08T11:37:53.543Z,100057.64
2023-02-08T11:40:34.752Z,100059.23
2023-02-08T11:43:06.732Z,100062.79
2023-02-08T11:45:40.905Z,100056.45
2023-02-08T11:48:39.377Z,100057.78
2023-02-08T11:51:08.494Z,100056.27
2023-02-08T11:53:40.674Z,100055.45
2023-02-08T11:56:19.259Z,100056.33
2023-02-08T11:58:59.988Z,100053.45
2023-02-08T12:01:40.228Z,100052.16
2023-02-08T12:04:13.702Z,100047.36
2023-02-08T12:07:09.420Z,100051.59
2023-02-08T12:09:38.624Z,100045.10
2023-02-08T12:12:25.588Z,100047.98
2023-02-08T12:15:13.726Z,100043.63
2023-02-08T12:18:15.346Z,100040.80
2023-02-08T12:20:48.891Z,100045.38
2023-02-08T12:23:20.233Z,100037.77
2023-02-08T12:26:07.235Z,100040.84
2023-02-08T12:28:44.246Z,100042.91
2023-02-08T12:31:15.653Z,100041.77
2023-02-08T12:34:07.415Z,100044.63
2023-02-08T12:37:14.964Z,100046.69
2023-02-08T12:40:40.220Z,100047.20
2023-02-08T12:43:19.913Z,100040.22
2023-02-08T12:46:14.851Z,100040.88
2023-02-08T12:49:10.808Z,100044.09
2023-02-08T12:51:51.383Z,100046.12
2023-02-08T12:54:48.141Z,100042.93
2023-02-08T12:57:21.029Z,100046.09
2023-02-08T13:00:01.556Z,100046.36
2023-02-08T13:02:36.004Z,100043.33
2023-02-08T13:05:07.545Z,100038.92
2023-02-08T13:07:42.967Z,100045.86
2023-02-08T13:10:27.402Z,100045.24
2023-02-08T13:13:01.624Z,100045.13
2023-02-08T13:15:40.475Z,100046.64
2023-02-08T13:18:19.240Z,100048.80
2023-02-08T13:20:52.898Z,100046.54
2023-02-08T13:23:51.688Z,100045.33
2023-02-08T13:26:28.238Z,100046.59
2023-02-08T13:29:01.168Z,100044.09
2023-02-08T13:31:36.351Z,100049.60
2023-02-08T13:34:18.186Z,100051.64
2023-02-08T13:37:04.434Z,100046.55
2023-02-08T13:39:42.168Z,100048.27
2023-02-08T13:42:35.469Z,100045.66
2023-02-08T13:45:12.206Z,100049.27
2023-02-08T13:47:48.985Z,100048.98
2023-02-08T13:50:44.457Z,100051.55
2023-02-08T13:53:15.208Z,100051.29
2023-02-08T13:55:51.431Z,100052.44
2023-02-08T13:58:40.094Z,100047.86
2023-02-08T14:01:19.564Z,100047.96
2023-02-08T14:04:07.267Z,100042.55
2023-02-08T14:06:50.746Z,100039.84
2023-02-08T14:09:47.868Z,100041.52
2023-02-08T14:12:41.529Z,100038.08
2023-02-08T14:15:18.501Z,100044.43
2023-02-08T14:17:52.704Z,100044.66
2023-02-08T14:20:40.252Z,100042.24
2023-02-08T14:23:31.555Z,100041.47
2023-02-08T14:26:24.373Z,100031.54
2023-02-08T14:31:52.982Z,100029.60
2023-02-08T14:34:38.378Z,100028.24
2023-02-08T14:37:23.510Z,100026.24
2023-02-08T14:40:27.630Z,100031.27
2023-02-08T14:43:04.854Z,100029.11
2023-02-08T14:45:42.289Z,100030.07
2023-02-08T14:48:33.104Z,100029.60
2023-02-08T14:51:11.410Z,100031.92
2023-02-08T14:53:52.944Z,100029.63
2023-02-08T14:56:32.010Z,100027.46
2023-02-08T14:59:02.692Z,100026.02
2023-02-08T15:01:45.258Z,100023.26
2023-02-08T15:04:15.766Z,100022.56
2023-02-08T15:07:02.436Z,100020.80
2023-02-08T15:09:36.767Z,100020.83
2023-02-08T15:12:22.454Z,100019.23
2023-02-08T15:14:54.317Z,100017.27
2023-02-08T15:17:35.322Z,100019.58
2023-02-08T15:20:25.849Z,100018.89
2023-02-08T15:23:18.656Z,100019.06
2023-02-08T15:26:23.372Z,100019.87
2023-02-08T15:28:54.867Z,100024.33
2023-02-08T15:31:30.123Z,100020.12
2023-02-08T15:33:59.675Z,100024.14
2023-02-08T15:36:34.720Z,100025.50
2023-02-08T15:39:11.324Z,100029.11
2023-02-08T15:41:39.852Z,100027.96
2023-02-08T15:44:25.881Z,100032.77
2023-02-08T15:46:57.721Z,100027.93
2023-02-08T15:49:41.659Z,100034.61
2023-02-08T15:52:17.281Z,100038.63
2023-02-08T15:54:47.400Z,100042.69
2023-02-08T15:57:32.986Z,100045.77
2023-02-08T16:00:02.451Z,100048.86
2023-02-08T16:02:35.391Z,100049.61
2023-02-08T16:05:20.145Z,100051.05
2023-02-08T16:07:52.031Z,100053.94
2023-02-08T16:10:41.543Z,100056.99
2023-02-08T16:13:21.011Z,100057.41
2023-02-08T16:16:03.756Z,100057.80
2023-02-08T16:18:46.633Z,100060.73
2023-02-08T16:21:28.466Z,100062.02
2023-02-08T16:24:00.589Z,100064.17
2023-02-08T16:26:35.258Z,100067.74
2023-02-08T16:29:17.365Z,100072.38
2023-02-08T16:31:48.816Z,100078.35
2023-02-08T16:34:23.262Z,100082.77
2023-02-08T16:36:53.028Z,100088.17
2023-02-08T16:39:31.957Z,100094.40
2023-02-08T16:42:15.214Z,100092.92
2023-02-08T16:45:00.571Z,100091.17
2023-02-08T16:47:37.026Z,100086.48
2023-02-08T16:50:10.836Z,100084.65
2023-02-08T16:52:40.140Z,100081.45
2023-02-08T16:55:19.259Z,100084.36
2023-02-08T16:57:51.057Z,100084.10
2023-02-08T17:00:39.566Z,100086.81
2023-02-08T17:03:07.618Z,100087.01
2023-02-08T17:05:39.917Z,100093.08
2023-02-08T17:08:21.341Z,100093.83
2023-02-08T17:10:55.538Z,100093.66
2023-02-08T17:13:24.561Z,100091.43
2023-02-08T17:15:53.909Z,100091.27
2023-02-08T17:18:23.273Z,100093.13
2023-02-08T17:20:57.924Z,100094.81
2023-02-08T17:23:26.783Z,100098.24
2023-02-08T17:25:57.214Z,100098.80
2023-02-08T17:28:44.667Z,100096.95
2023-02-08T17:31:14.965Z,100100.29
2023-02-08T17:33:43.921Z,100101.83
2023-02-08T17:36:14.669Z,100099.58
2023-02-08T17:38:45.980Z,100102.47
2023-02-08T17:41:17.027Z,100103.73
2023-02-08T17:43:46.101Z,100108.11
2023-02-08T17:46:20.877Z,100112.11
2023-02-08T17:48:49.189Z,100114.33
2023-02-08T17:51:21.125Z,100118.97
2023-02-08T17:53:50.552Z,100120.69
2023-02-08T17:56:23.901Z,100119.81
2023-02-08T17:58:54.057Z,100120.81
2023-02-08T18:01:25.895Z,100124.23
2023-02-08T18:03:54.972Z,100127.30
2023-02-08T18:06:25.256Z,100127.10
2023-02-08T18:08:58.119Z,100128.83
2023-02-08T18:11:26.149Z,100129.02
2023-02-08T18:13:54.708Z,100132.19
2023-02-08T18:16:25.926Z,100130.61
2023-02-08T18:18:59.319Z,100131.01
2023-02-08T18:21:33.434Z,100128.34
2023-02-08T18:24:04.834Z,100128.42
2023-02-08T18:26:34.622Z,100127.50
2023-02-08T18:29:03.888Z,100127.71
2023-02-08T18:31:32.927Z,100126.50
2023-02-08T18:34:01.796Z,100124.90
2023-02-08T18:36:33.061Z,100122.02
2023-02-08T18:39:01.291Z,100124.70
2023-02-08T18:41:33.088Z,100125.79
2023-02-08T18:44:02.595Z,100132.27
2023-02-08T18:46:30.687Z,100132.94
2023-02-08T18:48:58.620Z,100134.38
2023-02-08T18:51:28.004Z,100135.36
2023-02-08T18:53:56.383Z,100136.27
2023-02-08T18:56:27.366Z,100135.47
2023-02-08T18:58:59.965Z,100134.74
2023-02-08T19:01:28.328Z,100136.13
2023-02-08T19:03:56.513Z,100138.54
2023-02-08T19:06:28.667Z,100135.83
2023-02-08T19:08:59.496Z,100137.66
2023-02-08T19:11:38.211Z,100135.71
2023-02-08T19:14:10.788Z,100140.02
2023-02-08T19:16:39.574Z,100144.21
2023-02-08T19:19:07.669Z,100149.36
2023-02-08T19:21:37.348Z,100147.81
2023-02-08T19:24:06.151Z,100145.59
2023-02-08T19:26:40.186Z,100143.95
2023-02-08T19:29:14.733Z,100145.97
2023-02-08T19:31:50.196Z,100147.38
2023-02-08T19:34:19.895Z,100145.36
2023-02-08T19:36:53.605Z,100145.65
2023-02-08T19:39:27.374Z,100145.73
2023-02-08T19:41:58.638Z,100151.30
2023-02-08T19:44:29.827Z,100150.16
2023-02-08T19:46:58.412Z,100145.84
2023-02-08T19:49:28.410Z,100141.52
2023-02-08T19:51:57.135Z,100153.13
2023-02-08T19:54:25.637Z,100153.43
2023-02-08T19:56:54.945Z,100148.55
2023-02-08T19:59:28.699Z,100151.87
2023-02-08T20:01:56.742Z,100154.73
2023-02-08T20:04:25.481Z,100153.64
2023-02-08T20:06:54.333Z,100159.63
2023-02-08T20:09:22.310Z,100158.59
2023-02-08T20:12:00.135Z,100159.95
2023-02-08T20:14:32.837Z,100161.10
2023-02-08T20:17:03.753Z,100164.54
2023-02-08T20:19:31.824Z,100167.44
2023-02-08T20:22:00.343Z,100168.83
2023-02-08T20:24:29.222Z,100166.92
2023-02-08T20:26:58.300Z,100166.93
2023-02-08T20:29:28.187Z,100171.45
2023-02-08T20:31:57.889Z,100170.60
2023-02-08T20:34:26.973Z,100173.23
2023-02-08T20:37:06.913Z,100169.95
2023-02-08T20:39:37.656Z,100166.03
2023-02-08T20:42:06.381Z,100168.33
2023-02-08T20:44:34.570Z,100166.37
2023-02-08T20:47:07.534Z,100166.61
2023-02-08T20:49:36.391Z,100162.74
2023-02-08T20:52:05.084Z,100164.71
2023-02-08T20:54:33.104Z,100163.94
2023-02-08T20:57:01.485Z,100160.60
2023-02-08T20:59:29.434Z,100158.98
2023-02-08T21:01:59.461Z,100159.90
2023-02-08T21:04:28.373Z,100160.42
2023-02-08T21:06:56.306Z,100159.33
2023-02-08T21:09:24.554Z,100156.16
2023-02-08T21:11:52.758Z,100155.50
2023-02-08T21:14:23.565Z,100158.17
2023-02-08T21:16:56.238Z,100160.79
2023-02-08T21:19:29.573Z,100161.21
2023-02-08T21:22:01.289Z,100158.33
2023-02-08T21:24:32.224Z,100158.76
2023-02-08T21:27:01.111Z,100157.48
2023-02-08T21:29:29.457Z,100159.25
2023-02-08T21:31:58.735Z,100161.16
2023-02-08T21:34:27.340Z,100158.55
2023-02-08T21:36:55.487Z,100154.75
2023-02-08T21:39:23.536Z,100159.69
2023-02-08T21:41:52.578Z,100162.42
2023-02-08T21:44:20.850Z,100161.83
2023-02-08T21:46:48.765Z,100162.42
2023-02-08T21:49:35.372Z,100160.04
2023-02-08T21:52:21.821Z,100159.73
2023-02-08T21:54:53.842Z,100157.38
2023-02-08T21:57:22.131Z,100158.77
2023-02-08T21:59:53.066Z,100154.89
2023-02-08T22:02:25.993Z,100157.15
2023-02-08T22:04:56.637Z,100158.42
2023-02-08T22:07:25.848Z,100160.69
2023-02-08T22:09:54.745Z,100158.57
2023-02-08T22:12:24.004Z,100157.42
2023-02-08T22:14:52.839Z,100155.28
2023-02-08T22:17:20.862Z,100158.09
2023-02-08T22:19:48.911Z,100156.08
2023-02-08T22:22:17.089Z,100156.18
2023-02-08T22:24:45.133Z,100157.09
2023-02-08T22:27:13.096Z,100156.81
2023-02-08T22:29:41.084Z,100156.00
2023-02-08T22:32:10.187Z,100150.72
2023-02-08T22:34:39.358Z,100147.14
2023-02-08T22:37:07.456Z,100146.52
2023-02-08T22:39:36.160Z,100147.77
2023-02-08T22:42:08.660Z,100150.86
2023-02-08T22:44:38.016Z,100147.79
2023-02-08T22:47:07.468Z,100140.48
2023-02-08T22:49:36.205Z,100136.93
2023-02-08T22:52:06.852Z,100142.20
2023-02-08T22:54:35.657Z,100138.42
2023-02-08T22:57:06.160Z,100136.01
2023-02-08T22:59:34.560Z,100131.28
2023-02-08T23:02:02.882Z,100134.88
2023-02-08T23:04:31.466Z,100136.08
2023-02-08T23:07:02.526Z,100132.40
2023-02-08T23:09:31.035Z,100132.22
2023-02-08T23:11:59.152Z,100132.44
2023-02-08T23:14:27.406Z,100136.11
2023-02-08T23:16:56.044Z,100132.46
2023-02-08T23:19:25.143Z,100128.04
2023-02-08T23:21:53.443Z,100128.07
2023-02-08T23:24:21.475Z,100126.58
2023-02-08T23:26:49.448Z,100127.27
2023-02-08T23:29:17.459Z,100127.33
2023-02-08T23:31:46.748Z,100122.63
2023-02-08T23:34:14.811Z,100118.92
2023-02-08T23:36:43.648Z,100115.73
2023-02-08T23:39:11.725Z,100117.48
2023-02-08T23:41:39.875Z,100120.30
2023-02-08T23:44:07.869Z,100115.76
2023-02-08T23:46:35.852Z,100115.13
2023-02-08T23:49:04.022Z,100120.47
2023-02-08T23:51:32.527Z,100116.57
2023-02-08T23:54:00.650Z,100113.86
2023-02-08T23:56:32.123Z,100113.02
2023-02-08T23:59:00.930Z,100111.52
